Time;durP1;ratioP1;P1;durP2;ratioP2;P2;SDS_P1;SDS_P2;PMS_P1;PMS_P2;Temp;Humidity;BMP_temperature;BMP_pressure;BME280_temperature;BME280_humidity;BME280_pressure;Samples;Min_cycle;Max_cycle;Signal;HPM_P1;HPM_P2
2023/08/21 00:01:52;;;;;;;11.33;6.90;;;22.00;99.90;;;;;;5084833;28;21079;-70
2023/08/21 00:04:37;;;;;;;11.40;6.70;;;22.00;99.90;;;;;;5086614;28;20504;-70
2023/08/21 00:07:23;;;;;;;11.87;7.37;;;22.00;99.90;;;;;;5085073;28;20465;-70
2023/08/21 00:10:10;;;;;;;9.90;6.70;;;22.00;99.90;;;;;;5084300;28;20442;-70
2023/08/21 00:12:57;;;;;;;13.47;7.23;;;22.00;99.90;;;;;;5088944;28;21120;-70
2023/08/21 00:15:42;;;;;;;11.50;6.57;;;21.90;99.90;;;;;;5086883;28;20467;-70
2023/08/21 00:18:28;;;;;;;7.97;6.47;;;22.00;99.90;;;;;;5080758;28;20450;-70
2023/08/21 00:21:13;;;;;;;12.10;6.03;;;22.00;99.90;;;;;;5087529;28;20442;-70
2023/08/21 00:23:59;;;;;;;10.13;6.17;;;22.10;99.90;;;;;;5085533;28;20501;-70
2023/08/21 00:26:44;;;;;;;7.80;6.37;;;22.10;99.90;;;;;;5083989;28;20446;-70
2023/08/21 00:29:31;;;;;;;11.97;6.77;;;22.00;99.90;;;;;;5085117;28;20438;-70
2023/08/21 00:32:17;;;;;;;15.40;6.10;;;22.10;99.90;;;;;;5084613;28;20458;-70
2023/08/21 00:35:02;;;;;;;6.87;5.93;;;22.10;99.90;;;;;;5081744;28;20609;-70
2023/08/21 00:37:48;;;;;;;7.73;6.00;;;22.00;99.90;;;;;;5085319;28;20470;-70
2023/08/21 00:40:33;;;;;;;11.30;7.10;;;21.90;99.90;;;;;;5082141;28;20440;-70
2023/08/21 00:43:19;;;;;;;11.90;6.53;;;21.90;99.90;;;;;;5081827;28;20478;-70
2023/08/21 00:46:07;;;;;;;10.10;6.17;;;21.80;99.90;;;;;;5085297;28;20432;-70
2023/08/21 00:48:53;;;;;;;13.73;6.70;;;21.80;99.90;;;;;;5082689;28;20571;-70
2023/08/21 00:51:38;;;;;;;11.73;6.60;;;21.60;99.90;;;;;;5077182;28;20468;-70
2023/08/21 00:54:24;;;;;;;9.33;6.00;;;21.60;99.90;;;;;;5072534;28;20458;-70
2023/08/21 00:57:10;;;;;;;8.27;6.90;;;21.50;99.90;;;;;;5079842;28;20480;-70
2023/08/21 00:59:55;;;;;;;10.30;6.63;;;21.40;99.90;;;;;;5077507;28;20438;-70
2023/08/21 01:02:42;;;;;;;10.33;6.90;;;21.40;99.90;;;;;;5078337;28;20552;-70
2023/08/21 01:05:28;;;;;;;14.23;6.67;;;21.40;99.90;;;;;;5081307;28;20443;-70
2023/08/21 01:08:21;;;;;;;9.93;6.53;;;21.40;99.90;;;;;;5080706;28;20441;-70
2023/08/21 01:11:14;;;;;;;8.03;6.93;;;21.40;99.90;;;;;;5078966;28;20491;-70
2023/08/21 01:14:07;;;;;;;14.73;6.90;;;21.40;99.90;;;;;;5081088;28;20539;-70
2023/08/21 01:16:56;;;;;;;11.60;7.33;;;21.40;99.90;;;;;;5076836;28;20878;-70
2023/08/21 01:19:45;;;;;;;8.77;7.03;;;21.40;99.90;;;;;;5078632;28;20441;-70
2023/08/21 01:22:37;;;;;;;15.90;6.60;;;21.40;99.90;;;;;;5079143;28;20512;-70
2023/08/21 01:25:24;;;;;;;8.73;6.33;;;21.50;99.90;;;;;;5082710;28;20450;-70
2023/08/21 01:28:09;;;;;;;8.77;6.07;;;21.50;99.90;;;;;;5076823;28;20450;-70
2023/08/21 01:31:03;;;;;;;20.87;7.67;;;21.60;99.90;;;;;;5083299;28;20438;-70
2023/08/21 01:33:53;;;;;;;11.73;8.23;;;21.60;99.90;;;;;;5075456;28;20825;-70
2023/08/21 01:36:39;;;;;;;12.30;5.80;;;21.60;99.90;;;;;;5073120;28;21813;-70
2023/08/21 01:39:26;;;;;;;8.00;6.63;;;21.50;99.90;;;;;;5080027;28;20449;-70
2023/08/21 01:42:13;;;;;;;8.10;5.90;;;21.50;99.90;;;;;;5074992;28;20469;-70
2023/08/21 01:44:58;;;;;;;8.37;5.80;;;21.50;99.90;;;;;;5079583;28;20687;-70
2023/08/21 01:47:44;;;;;;;9.83;6.53;;;21.50;99.90;;;;;;5078522;28;21070;-70
2023/08/21 01:50:30;;;;;;;10.03;6.17;;;21.60;99.90;;;;;;5078457;28;20997;-70
2023/08/21 01:53:15;;;;;;;8.00;6.00;;;21.50;99.90;;;;;;5078251;28;21140;-70
2023/08/21 01:56:01;;;;;;;7.00;6.10;;;21.40;99.90;;;;;;5077447;28;20468;-70
2023/08/21 01:58:47;;;;;;;13.27;6.77;;;21.50;99.90;;;;;;5077576;28;20446;-70
2023/08/21 02:01:33;;;;;;;10.00;6.17;;;21.40;99.90;;;;;;5083078;28;20863;-70
2023/08/21 02:04:18;;;;;;;11.67;6.60;;;21.50;99.90;;;;;;5079611;28;20483;-70
2023/08/21 02:07:04;;;;;;;11.23;5.30;;;21.60;99.90;;;;;;5077383;28;20434;-70
2023/08/21 02:09:49;;;;;;;10.70;6.23;;;21.60;99.90;;;;;;5082115;28;20823;-70
2023/08/21 02:12:35;;;;;;;7.30;6.03;;;21.70;99.90;;;;;;5082666;28;20508;-70
2023/08/21 02:15:23;;;;;;;12.53;6.87;;;21.70;99.90;;;;;;5080907;28;20834;-70
2023/08/21 02:18:08;;;;;;;8.10;6.90;;;21.60;99.90;;;;;;5076757;28;20780;-70
2023/08/21 02:20:53;;;;;;;9.60;7.13;;;21.60;99.90;;;;;;5074966;28;20451;-70
2023/08/21 02:23:39;;;;;;;17.77;6.83;;;21.50;99.90;;;;;;5076374;28;20846;-70
2023/08/21 02:26:24;;;;;;;7.43;6.00;;;21.40;99.90;;;;;;5082718;28;20968;-70
2023/08/21 02:29:10;;;;;;;8.97;6.87;;;21.20;99.90;;;;;;5082257;28;20442;-70
2023/08/21 02:31:57;;;;;;;16.83;6.60;;;21.20;99.90;;;;;;5076222;28;20465;-70
2023/08/21 02:34:42;;;;;;;11.13;6.80;;;21.10;99.90;;;;;;5073119;28;20540;-70
2023/08/21 02:37:28;;;;;;;12.60;8.23;;;21.10;99.90;;;;;;5081214;28;20588;-70
2023/08/21 02:40:13;;;;;;;13.60;6.10;;;21.00;99.90;;;;;;5079609;28;20437;-70
2023/08/21 02:42:59;;;;;;;13.63;6.30;;;21.00;99.90;;;;;;5081673;28;20563;-70
2023/08/21 02:45:44;;;;;;;9.90;6.50;;;21.10;99.90;;;;;;5081843;28;20488;-70
2023/08/21 02:48:31;;;;;;;10.20;6.50;;;21.00;99.90;;;;;;5075762;28;20505;-70
2023/08/21 02:51:16;;;;;;;14.20;7.23;;;21.00;99.90;;;;;;5080273;28;20819;-70
2023/08/21 02:54:02;;;;;;;8.53;7.60;;;21.10;99.90;;;;;;5079496;28;20442;-70
2023/08/21 02:56:48;;;;;;;7.40;6.23;;;21.10;99.90;;;;;;5077701;28;20514;-70
2023/08/21 02:59:33;;;;;;;11.70;6.67;;;21.10;99.90;;;;;;5076637;28;20560;-70
2023/08/21 03:02:19;;;;;;;8.83;6.33;;;21.20;99.90;;;;;;5079572;28;20865;-70
2023/08/21 03:05:06;;;;;;;9.80;6.27;;;21.30;99.90;;;;;;5074771;28;20901;-70
2023/08/21 03:07:52;;;;;;;6.33;5.40;;;21.30;99.90;;;;;;5076923;28;20477;-70
2023/08/21 03:10:37;;;;;;;7.20;6.37;;;21.40;99.90;;;;;;5080890;28;20458;-70
2023/08/21 03:13:23;;;;;;;10.20;6.17;;;21.30;99.90;;;;;;5075274;28;20474;-70
2023/08/21 03:16:08;;;;;;;9.03;5.57;;;21.30;99.90;;;;;;5081238;28;20465;-70
2023/08/21 03:18:58;;;;;;;10.90;6.83;;;21.20;99.90;;;;;;5071543;28;20476;-70
2023/08/21 03:21:45;;;;;;;11.70;8.03;;;21.10;99.90;;;;;;5080728;28;20446;-70
2023/08/21 03:24:31;;;;;;;12.67;6.57;;;21.00;99.90;;;;;;5077501;28;20930;-70
2023/08/21 03:27:17;;;;;;;10.90;6.73;;;20.90;99.90;;;;;;5075666;28;20884;-70
2023/08/21 03:30:03;;;;;;;8.60;6.50;;;20.70;99.90;;;;;;5077455;28;20797;-70
2023/08/21 03:32:48;;;;;;;11.57;6.70;;;20.80;99.90;;;;;;5077045;28;20461;-70
2023/08/21 03:35:33;;;;;;;12.00;6.40;;;20.90;99.90;;;;;;5079794;28;20614;-70
2023/08/21 03:38:20;;;;;;;8.13;5.83;;;20.90;99.90;;;;;;5081811;28;20515;-70
2023/08/21 03:41:06;;;;;;;8.80;6.20;;;21.00;99.90;;;;;;5078531;28;20483;-71
2023/08/21 03:43:51;;;;;;;10.40;6.63;;;21.00;99.90;;;;;;5081768;28;21026;-70
2023/08/21 03:46:37;;;;;;;10.77;6.17;;;21.10;99.90;;;;;;5085561;28;20580;-70
2023/08/21 03:49:22;;;;;;;10.23;6.50;;;21.00;99.90;;;;;;5077371;28;20495;-70
2023/08/21 03:52:08;;;;;;;9.63;6.53;;;21.00;99.90;;;;;;5082612;28;20575;-70
2023/08/21 03:54:55;;;;;;;9.30;6.03;;;21.00;99.90;;;;;;5082073;28;20995;-70
2023/08/21 03:57:40;;;;;;;10.93;6.27;;;21.00;99.90;;;;;;5084948;28;20527;-70
2023/08/21 04:00:26;;;;;;;11.40;6.63;;;21.00;99.90;;;;;;5084472;28;20969;-70
2023/08/21 04:03:11;;;;;;;14.13;5.87;;;21.10;99.90;;;;;;5084827;28;20469;-70
2023/08/21 04:05:58;;;;;;;9.70;7.07;;;21.00;99.90;;;;;;5078374;28;20442;-70
2023/08/21 04:08:44;;;;;;;8.63;6.70;;;21.00;99.90;;;;;;5080470;28;20513;-70
2023/08/21 04:11:30;;;;;;;7.80;6.30;;;20.90;99.90;;;;;;5080783;28;20486;-70
2023/08/21 04:14:16;;;;;;;12.23;7.23;;;20.70;99.90;;;;;;5077539;28;20807;-70
2023/08/21 04:17:01;;;;;;;7.97;6.10;;;20.60;99.90;;;;;;5080152;28;20619;-70
2023/08/21 04:19:47;;;;;;;8.60;5.83;;;20.50;99.90;;;;;;5082394;28;20461;-70
2023/08/21 04:22:33;;;;;;;9.53;6.80;;;20.50;99.90;;;;;;5082301;28;20544;-70
2023/08/21 04:25:18;;;;;;;12.60;6.40;;;20.60;99.90;;;;;;5079179;28;20828;-70
2023/08/21 04:28:07;;;;;;;10.53;6.43;;;20.60;99.90;;;;;;5080245;28;20494;-70
2023/08/21 04:30:52;;;;;;;7.90;5.87;;;20.60;99.90;;;;;;5078958;28;20488;-70
2023/08/21 04:33:38;;;;;;;9.03;7.60;;;20.60;99.90;;;;;;5074976;28;20465;-70
2023/08/21 04:36:23;;;;;;;13.37;7.00;;;20.60;99.90;;;;;;5084836;28;20826;-70
2023/08/21 04:39:09;;;;;;;10.43;6.83;;;20.70;99.90;;;;;;5081781;28;20853;-70
2023/08/21 04:41:55;;;;;;;10.80;6.47;;;20.70;99.90;;;;;;5072729;28;20481;-70
2023/08/21 04:44:41;;;;;;;27.47;7.03;;;20.60;99.90;;;;;;5079709;28;20445;-70
2023/08/21 04:47:28;;;;;;;15.33;6.73;;;20.60;99.90;;;;;;5081421;28;20580;-70
2023/08/21 04:50:15;;;;;;;10.83;6.70;;;20.70;99.90;;;;;;5085690;28;20441;-70
2023/08/21 04:53:00;;;;;;;9.97;6.67;;;20.70;99.90;;;;;;5078136;28;21099;-70
2023/08/21 04:55:46;;;;;;;8.83;6.17;;;20.80;99.90;;;;;;5078614;28;21078;-70
2023/08/21 04:58:32;;;;;;;8.03;6.23;;;20.90;99.90;;;;;;5076610;28;20444;-70
2023/08/21 05:01:19;;;;;;;11.30;6.30;;;20.90;99.90;;;;;;5080387;28;20421;-70
2023/08/21 05:04:04;;;;;;;15.03;5.50;;;21.00;99.90;;;;;;5076958;28;20815;-70
2023/08/21 05:06:50;;;;;;;8.80;6.13;;;21.10;99.90;;;;;;5080647;28;21112;-70
2023/08/21 05:09:35;;;;;;;11.13;8.60;;;21.10;99.90;;;;;;5077078;28;20439;-70
2023/08/21 05:12:21;;;;;;;10.43;6.27;;;21.00;99.90;;;;;;5077607;28;20807;-70
2023/08/21 05:15:07;;;;;;;9.63;6.03;;;21.10;99.90;;;;;;5079840;28;20962;-70
2023/08/21 05:17:54;;;;;;;9.63;5.83;;;21.10;99.90;;;;;;5081624;28;20639;-70
2023/08/21 05:20:39;;;;;;;11.90;7.07;;;21.20;99.90;;;;;;5078105;28;20515;-70
2023/08/21 05:23:25;;;;;;;8.37;5.70;;;21.20;99.90;;;;;;5082256;28;20512;-70
2023/08/21 05:26:11;;;;;;;9.67;5.70;;;21.30;99.90;;;;;;5081857;28;20509;-70
2023/08/21 05:28:56;;;;;;;12.03;6.93;;;21.30;99.90;;;;;;5075861;28;20451;-70
2023/08/21 05:31:42;;;;;;;10.07;6.30;;;21.40;99.90;;;;;;5082471;28;20443;-70
2023/08/21 05:34:28;;;;;;;9.90;7.13;;;21.40;99.90;;;;;;5082710;28;20444;-70
2023/08/21 05:37:14;;;;;;;7.87;6.57;;;21.40;99.90;;;;;;5080128;28;20469;-70
2023/08/21 05:39:59;;;;;;;7.80;6.50;;;21.40;99.90;;;;;;5082063;28;20568;-70
2023/08/21 05:42:45;;;;;;;13.40;6.27;;;21.40;99.90;;;;;;5076229;28;21141;-70
2023/08/21 05:45:31;;;;;;;10.50;6.37;;;21.40;99.90;;;;;;5078244;28;20488;-71
2023/08/21 05:48:17;;;;;;;8.67;6.17;;;21.50;99.90;;;;;;5078538;28;20483;-70
2023/08/21 05:51:05;;;;;;;7.70;6.40;;;21.50;99.90;;;;;;5078251;28;20445;-70
2023/08/21 05:53:50;;;;;;;9.40;7.40;;;21.50;99.90;;;;;;5081860;28;20513;-70
2023/08/21 05:56:36;;;;;;;7.90;6.33;;;21.60;99.90;;;;;;5076254;28;20469;-70
2023/08/21 05:59:28;;;;;;;9.90;7.63;;;21.60;99.90;;;;;;5074476;28;20447;-71
2023/08/21 06:02:14;;;;;;;8.73;6.63;;;21.60;99.90;;;;;;5079030;28;20478;-70
2023/08/21 06:05:00;;;;;;;8.60;6.60;;;21.70;99.90;;;;;;5077519;28;20437;-70
2023/08/21 06:07:47;;;;;;;9.57;6.90;;;21.80;99.90;;;;;;5080080;28;20434;-70
2023/08/21 06:10:32;;;;;;;7.77;6.93;;;21.80;99.90;;;;;;5080345;28;20444;-70
2023/08/21 06:13:18;;;;;;;8.30;5.87;;;21.80;99.90;;;;;;5078392;28;20533;-70
2023/08/21 06:16:03;;;;;;;12.20;7.67;;;21.90;99.90;;;;;;5078391;28;20493;-70
2023/08/21 06:18:48;;;;;;;9.23;7.40;;;22.00;99.90;;;;;;5072509;28;20484;-70
2023/08/21 06:21:34;;;;;;;10.73;6.37;;;22.10;99.90;;;;;;5080398;28;20491;-69
2023/08/21 06:24:21;;;;;;;8.87;6.77;;;22.20;99.90;;;;;;5083288;28;20473;-71
2023/08/21 06:27:07;;;;;;;8.53;7.40;;;22.20;99.90;;;;;;5076728;28;20453;-70
2023/08/21 06:29:52;;;;;;;11.13;7.07;;;22.30;99.90;;;;;;5079574;28;20980;-70
2023/08/21 06:32:38;;;;;;;8.77;6.40;;;22.40;99.90;;;;;;5081543;28;21065;-71
2023/08/21 06:35:23;;;;;;;9.60;6.70;;;22.40;99.90;;;;;;5073302;28;20442;-71
2023/08/21 06:38:09;;;;;;;12.60;7.20;;;22.60;99.90;;;;;;5079697;28;20965;-71
2023/08/21 06:40:56;;;;;;;9.53;6.03;;;22.70;99.90;;;;;;5075911;28;20922;-70
2023/08/21 06:43:42;;;;;;;9.03;6.50;;;22.70;99.90;;;;;;5077996;28;20453;-70
2023/08/21 06:46:27;;;;;;;7.50;6.80;;;22.80;99.90;;;;;;5076969;28;20543;-70
2023/08/21 06:49:13;;;;;;;8.83;7.93;;;22.80;99.90;;;;;;5075197;28;20597;-71
2023/08/21 06:51:58;;;;;;;10.23;7.60;;;22.90;99.90;;;;;;5075068;28;21044;-71
2023/08/21 06:54:43;;;;;;;7.83;6.87;;;23.10;99.90;;;;;;5079549;28;20443;-71
2023/08/21 06:57:31;;;;;;;10.10;6.97;;;23.20;99.90;;;;;;5071931;28;20474;-71
2023/08/21 07:00:16;;;;;;;25.23;7.40;;;23.20;99.90;;;;;;5076707;28;20442;-70
2023/08/21 07:03:03;;;;;;;9.60;7.27;;;23.30;99.90;;;;;;5077941;28;20811;-70
2023/08/21 07:05:53;;;;;;;9.33;7.63;;;23.30;99.90;;;;;;5079073;28;20545;-70
2023/08/21 07:08:40;;;;;;;14.27;9.13;;;23.40;99.90;;;;;;5070812;28;20663;-70
2023/08/21 07:11:25;;;;;;;10.80;8.73;;;23.50;99.90;;;;;;5077567;28;20450;-71
2023/08/21 07:14:13;;;;;;;12.03;7.40;;;23.50;99.90;;;;;;5082664;28;20442;-71
2023/08/21 07:16:59;;;;;;;10.70;7.77;;;23.70;99.90;;;;;;5085086;28;20474;-71
2023/08/21 07:19:44;;;;;;;11.80;8.73;;;23.70;99.90;;;;;;5080157;28;20909;-70
2023/08/21 07:22:30;;;;;;;10.63;8.87;;;23.90;99.90;;;;;;5085488;28;20517;-71
2023/08/21 07:25:16;;;;;;;12.13;7.97;;;24.00;99.90;;;;;;5084299;28;21239;-71
2023/08/21 07:28:01;;;;;;;10.80;8.70;;;24.00;99.90;;;;;;5080889;28;20805;-71
2023/08/21 07:30:48;;;;;;;13.13;7.87;;;24.10;99.90;;;;;;5080451;28;20447;-70
2023/08/21 07:33:34;;;;;;;13.27;8.57;;;24.20;99.90;;;;;;5074520;28;20809;-71
2023/08/21 07:36:20;;;;;;;10.23;7.37;;;24.30;99.90;;;;;;5079616;28;20440;-71
2023/08/21 07:39:05;;;;;;;18.20;8.47;;;24.50;99.90;;;;;;5084665;28;20997;-71
2023/08/21 07:41:52;;;;;;;12.70;8.40;;;24.60;99.90;;;;;;5080089;28;20566;-71
2023/08/21 07:44:37;;;;;;;9.33;7.53;;;24.70;99.90;;;;;;5082349;28;20803;-71
2023/08/21 07:47:24;;;;;;;11.20;8.80;;;24.70;99.90;;;;;;5074395;28;20452;-70
2023/08/21 07:50:10;;;;;;;15.60;8.30;;;24.80;99.90;;;;;;5081268;28;20526;-70
2023/08/21 07:52:55;;;;;;;10.93;9.30;;;25.00;99.90;;;;;;5077208;28;20477;-70
2023/08/21 07:55:41;;;;;;;11.23;8.10;;;25.10;99.90;;;;;;5080409;28;20523;-70
2023/08/21 07:58:27;;;;;;;15.13;8.63;;;25.20;99.90;;;;;;5085025;28;21056;-70
2023/08/21 08:01:12;;;;;;;14.60;8.93;;;25.20;99.90;;;;;;5080646;28;20485;-71
2023/08/21 08:04:00;;;;;;;16.50;9.37;;;25.30;99.90;;;;;;5077245;28;20529;-71
2023/08/21 08:06:45;;;;;;;11.53;8.33;;;25.40;99.90;;;;;;5077278;28;20440;-71
2023/08/21 08:09:31;;;;;;;11.70;8.47;;;25.60;99.90;;;;;;5082837;28;20448;-71
2023/08/21 08:12:17;;;;;;;9.90;8.63;;;25.70;99.90;;;;;;5077986;28;21005;-71
2023/08/21 08:15:03;;;;;;;10.60;8.43;;;25.70;99.90;;;;;;5085451;28;20486;-71
2023/08/21 08:17:51;;;;;;;10.63;9.17;;;25.80;99.90;;;;;;5084800;28;20470;-71
2023/08/21 08:20:38;;;;;;;10.43;7.97;;;25.90;99.90;;;;;;5077664;28;20493;-70
2023/08/21 08:23:23;;;;;;;10.80;8.23;;;26.00;99.90;;;;;;5076104;28;20507;-71
2023/08/21 08:26:08;;;;;;;9.60;8.20;;;26.10;99.90;;;;;;5077707;28;20457;-70
2023/08/21 08:28:54;;;;;;;11.70;9.00;;;26.30;99.90;;;;;;5078403;28;20890;-71
2023/08/21 08:31:40;;;;;;;10.77;8.83;;;26.30;99.90;;;;;;5087604;28;20437;-71
2023/08/21 08:34:25;;;;;;;15.50;8.80;;;26.40;99.90;;;;;;5077703;28;20830;-70
2023/08/21 08:37:12;;;;;;;9.90;8.47;;;26.50;99.90;;;;;;5082355;28;20563;-71
2023/08/21 08:39:57;;;;;;;11.90;7.73;;;26.60;99.90;;;;;;5082723;28;20602;-71
2023/08/21 08:42:43;;;;;;;10.30;9.10;;;26.60;99.90;;;;;;5080629;28;20473;-70
2023/08/21 08:45:31;;;;;;;15.20;8.87;;;26.70;99.90;;;;;;5077549;28;20456;-70
2023/08/21 08:48:17;;;;;;;16.40;8.87;;;26.80;99.90;;;;;;5083875;28;20441;-71
2023/08/21 08:51:04;;;;;;;12.07;7.83;;;26.80;99.90;;;;;;5076396;28;20441;-71
2023/08/21 08:53:50;;;;;;;10.77;7.90;;;26.80;99.90;;;;;;5084336;28;20490;-71
2023/08/21 08:56:35;;;;;;;9.73;8.53;;;27.00;99.90;;;;;;5079140;28;20450;-71
2023/08/21 08:59:20;;;;;;;14.73;8.53;;;27.10;99.90;;;;;;5082194;28;20488;-70
2023/08/21 09:02:06;;;;;;;10.50;8.07;;;27.20;99.90;;;;;;5077636;28;20523;-71
2023/08/21 09:04:52;;;;;;;13.13;8.50;;;27.30;99.90;;;;;;5078754;28;21430;-71
2023/08/21 09:07:37;;;;;;;13.03;8.43;;;27.40;99.90;;;;;;5077556;28;20460;-71
2023/08/21 09:10:26;;;;;;;10.97;8.30;;;27.50;99.90;;;;;;5081288;28;20485;-71
2023/08/21 09:13:13;;;;;;;10.87;7.60;;;27.60;99.90;;;;;;5079072;28;20582;-71
2023/08/21 09:16:00;;;;;;;12.90;7.20;;;27.60;99.90;;;;;;5081764;28;20462;-71
2023/08/21 09:18:48;;;;;;;10.40;7.57;;;27.70;99.90;;;;;;5076624;28;20478;-71
2023/08/21 09:21:33;;;;;;;13.20;8.43;;;27.80;99.90;;;;;;5083083;28;20554;-71
2023/08/21 09:24:19;;;;;;;9.83;7.97;;;27.90;99.90;;;;;;5076569;28;20873;-71
2023/08/21 09:27:14;;;;;;;8.73;7.80;;;28.00;99.90;;;;;;5069789;28;20438;-71
2023/08/21 09:29:59;;;;;;;8.20;6.83;;;28.10;99.90;;;;;;5073784;28;20437;-70
2023/08/21 09:32:56;;;;;;;9.10;7.53;;;28.20;99.90;;;;;;5080794;28;20877;-71
2023/08/21 09:35:44;;;;;;;15.90;7.23;;;28.20;99.90;;;;;;5076952;28;20553;-72
2023/08/21 09:38:30;;;;;;;13.53;8.60;;;28.10;99.90;;;;;;5081323;28;20476;-71
2023/08/21 09:41:19;;;;;;;8.47;6.37;;;28.20;99.90;;;;;;5079228;28;20435;-70
2023/08/21 09:44:06;;;;;;;9.57;6.90;;;28.20;99.90;;;;;;5077746;28;20585;-71
2023/08/21 09:46:51;;;;;;;9.30;6.40;;;28.40;99.90;;;;;;5074839;28;20964;-70
2023/08/21 09:49:39;;;;;;;8.20;6.33;;;28.40;99.90;;;;;;5074550;28;20607;-71
2023/08/21 09:52:25;;;;;;;6.90;5.53;;;28.50;99.90;;;;;;5077691;28;21002;-71
2023/08/21 09:55:11;;;;;;;10.03;6.10;;;28.40;97.40;;;;;;5080432;28;20520;-71
2023/08/21 09:57:59;;;;;;;12.43;6.47;;;28.50;99.90;;;;;;5075809;28;20466;-71
2023/08/21 10:00:48;;;;;;;7.27;6.03;;;28.50;99.90;;;;;;5077162;28;20439;-70
2023/08/21 10:03:34;;;;;;;10.00;6.23;;;28.60;98.40;;;;;;5074739;28;21132;-71
2023/08/21 10:06:20;;;;;;;15.03;6.43;;;28.70;99.60;;;;;;5079044;28;20587;-71
2023/08/21 10:09:07;;;;;;;9.27;6.17;;;28.70;96.90;;;;;;5077204;28;20446;-71
2023/08/21 10:11:53;;;;;;;12.57;6.40;;;28.80;97.50;;;;;;5074404;28;20859;-69
2023/08/21 10:14:39;;;;;;;9.57;5.90;;;28.90;95.20;;;;;;5080619;28;20511;-71
2023/08/21 10:17:25;;;;;;;6.53;5.83;;;28.90;95.20;;;;;;5077719;28;20966;-70
2023/08/21 10:20:11;;;;;;;13.77;6.17;;;29.00;94.10;;;;;;5077601;28;20864;-70
2023/08/21 10:23:02;;;;;;;13.40;7.33;;;28.90;90.10;;;;;;5075852;28;20474;-70
2023/08/21 10:25:47;;;;;;;8.93;6.27;;;29.00;92.20;;;;;;5082090;28;20474;-71
2023/08/21 10:28:50;;;;;;;12.07;6.50;;;29.00;88.20;;;;;;5076833;28;20442;-70
2023/08/21 10:31:38;;;;;;;6.73;5.97;;;29.00;79.60;;;;;;5074652;28;20437;-70
2023/08/21 10:34:32;;;;;;;7.90;5.90;;;29.00;84.90;;;;;;5079717;28;20453;-70
2023/08/21 10:37:18;;;;;;;11.90;6.03;;;29.10;87.70;;;;;;5084597;28;20541;-70
2023/08/21 10:40:04;;;;;;;7.10;6.33;;;29.20;86.00;;;;;;5084848;28;20449;-70
2023/08/21 10:42:49;;;;;;;9.40;5.43;;;29.40;84.00;;;;;;5077061;28;20957;-70
2023/08/21 10:45:55;;;;;;;10.33;5.50;;;29.50;76.90;;;;;;5077021;28;20457;-70
2023/08/21 10:48:40;;;;;;;6.33;4.27;;;29.60;70.90;;;;;;5075390;28;20450;-70
2023/08/21 10:51:30;;;;;;;8.33;4.47;;;29.70;61.80;;;;;;5081886;28;20442;-70
2023/08/21 10:54:16;;;;;;;8.97;4.77;;;29.70;52.00;;;;;;5075957;28;20465;-71
2023/08/21 10:57:03;;;;;;;7.40;5.23;;;29.70;55.90;;;;;;5076196;28;20438;-71
2023/08/21 10:59:55;;;;;;;8.07;4.60;;;29.80;53.40;;;;;;5074774;28;20476;-72
2023/08/21 11:02:42;;;;;;;6.97;4.63;;;29.80;58.10;;;;;;5076276;28;20525;-70
2023/08/21 11:05:28;;;;;;;9.73;4.50;;;29.70;53.90;;;;;;5077125;28;20592;-70
2023/08/21 11:08:15;;;;;;;7.30;4.30;;;29.70;56.00;;;;;;5078363;28;20446;-71
2023/08/21 11:11:00;;;;;;;8.70;4.10;;;29.90;47.60;;;;;;5077574;28;20443;-70
2023/08/21 11:13:53;;;;;;;6.40;3.80;;;29.90;39.20;;;;;;5076020;28;20469;-71
2023/08/21 11:16:39;;;;;;;6.00;3.80;;;29.80;39.20;;;;;;5078260;28;20933;-71
2023/08/21 11:19:25;;;;;;;5.17;3.77;;;29.90;34.50;;;;;;5078351;28;20474;-70
2023/08/21 11:22:12;;;;;;;8.03;3.80;;;29.90;34.50;;;;;;5074869;28;20469;-70
2023/08/21 11:24:59;;;;;;;9.33;4.07;;;30.00;34.80;;;;;;5080337;28;20581;-70
2023/08/21 11:27:44;;;;;;;7.03;3.13;;;30.20;34.80;;;;;;5077433;28;20452;-70
2023/08/21 11:30:32;;;;;;;7.70;3.30;;;30.40;34.20;;;;;;5080765;28;20451;-71
2023/08/21 11:33:18;;;;;;;5.17;3.03;;;30.50;32.50;;;;;;5076934;28;20555;-71
2023/08/21 11:36:03;;;;;;;5.57;3.30;;;30.60;33.60;;;;;;5075916;28;20483;-71
2023/08/21 11:39:03;;;;;;;4.67;3.50;;;30.60;28.90;;;;;;5080872;28;20635;-70
2023/08/21 11:41:57;;;;;;;5.00;3.43;;;30.80;35.30;;;;;;5078453;28;20466;-70
2023/08/21 11:44:44;;;;;;;5.57;3.57;;;30.80;29.40;;;;;;5076361;28;20452;-70
2023/08/21 11:47:32;;;;;;;5.50;3.57;;;30.90;31.00;;;;;;5079082;28;20575;-70
2023/08/21 11:50:19;;;;;;;4.97;4.00;;;30.90;30.60;;;;;;5075965;28;20434;-71
2023/08/21 11:53:05;;;;;;;6.63;4.37;;;30.80;32.90;;;;;;5077032;28;20482;-71
2023/08/21 11:55:52;;;;;;;5.40;4.17;;;30.90;33.40;;;;;;5081865;28;20461;-70
2023/08/21 11:58:40;;;;;;;7.40;3.60;;;31.00;35.00;;;;;;5080315;28;20481;-71
2023/08/21 12:01:25;;;;;;;4.33;3.60;;;31.10;35.00;;;;;;5079706;28;21013;-70
2023/08/21 12:04:16;;;;;;;7.23;3.40;;;31.10;31.70;;;;;;5080542;28;20473;-71
2023/08/21 12:07:01;;;;;;;8.50;3.87;;;31.20;32.00;;;;;;5080246;28;20446;-70
2023/08/21 12:09:48;;;;;;;6.50;3.30;;;31.30;30.50;;;;;;5079597;28;20457;-72
2023/08/21 12:12:33;;;;;;;6.20;4.00;;;31.20;28.70;;;;;;5079889;28;20471;-71
2023/08/21 12:15:21;;;;;;;9.37;4.40;;;31.20;27.30;;;;;;5082458;28;20785;-71
2023/08/21 12:18:06;;;;;;;6.43;3.90;;;31.00;28.80;;;;;;5082594;28;20566;-71
2023/08/21 12:20:52;;;;;;;7.33;3.67;;;30.90;29.20;;;;;;5083461;28;20449;-70
2023/08/21 12:23:37;;;;;;;8.00;3.90;;;31.10;29.70;;;;;;5072359;28;20525;-71
2023/08/21 12:26:23;;;;;;;6.27;3.53;;;31.10;29.20;;;;;;5076751;28;20505;-71
2023/08/21 12:29:08;;;;;;;26.27;3.80;;;31.30;33.50;;;;;;5076343;28;20436;-71
2023/08/21 12:31:55;;;;;;;6.60;4.20;;;31.50;28.80;;;;;;5067439;28;20496;-71
2023/08/21 12:34:40;;;;;;;6.10;4.20;;;31.50;29.00;;;;;;5075864;28;20454;-72
2023/08/21 12:37:26;;;;;;;5.80;3.83;;;31.30;28.20;;;;;;5066726;28;20930;-71
2023/08/21 12:40:12;;;;;;;7.70;5.10;;;31.40;28.70;;;;;;5079991;28;20464;-71
2023/08/21 12:42:57;;;;;;;7.73;4.10;;;31.60;28.70;;;;;;5078514;28;21076;-70
2023/08/21 12:45:43;;;;;;;7.07;4.00;;;31.70;29.70;;;;;;5081427;28;20451;-71
2023/08/21 12:48:29;;;;;;;9.10;4.50;;;31.90;27.00;;;;;;5075698;28;20920;-71
2023/08/21 12:51:15;;;;;;;7.40;3.60;;;32.00;29.50;;;;;;5077237;28;20453;-71
2023/08/21 12:54:01;;;;;;;9.40;4.53;;;32.10;29.00;;;;;;5077905;28;20450;-70
2023/08/21 12:56:46;;;;;;;5.57;4.47;;;32.10;27.40;;;;;;5079794;28;21715;-70
2023/08/21 12:59:32;;;;;;;5.20;4.13;;;32.00;27.10;;;;;;5078345;28;21488;-70
2023/08/21 13:02:18;;;;;;;5.77;4.30;;;31.90;26.00;;;;;;5080545;28;21307;-71
2023/08/21 13:05:06;;;;;;;14.03;4.90;;;31.90;26.90;;;;;;5078267;28;21221;-70
2023/08/21 13:07:52;;;;;;;8.70;4.30;;;31.90;26.10;;;;;;5074368;28;20551;-71
2023/08/21 13:10:37;;;;;;;7.53;3.90;;;32.20;29.00;;;;;;5073610;28;20430;-71
2023/08/21 13:13:23;;;;;;;5.90;3.80;;;32.50;26.90;;;;;;5073146;28;20461;-71
2023/08/21 13:16:08;;;;;;;6.50;4.00;;;32.70;23.80;;;;;;5081838;28;20535;-70
2023/08/21 13:18:54;;;;;;;5.73;3.97;;;32.70;23.80;;;;;;5074099;28;20512;-71
2023/08/21 13:21:41;;;;;;;9.77;4.37;;;32.90;26.50;;;;;;5080125;28;20438;-72
2023/08/21 13:24:28;;;;;;;10.50;4.33;;;32.90;23.60;;;;;;5077463;28;20446;-71
2023/08/21 13:27:13;;;;;;;4.70;3.33;;;33.00;24.00;;;;;;5083404;28;20481;-71
2023/08/21 13:29:58;;;;;;;9.60;4.43;;;33.20;24.20;;;;;;5082618;28;20498;-71
2023/08/21 13:32:45;;;;;;;7.60;3.60;;;33.20;24.90;;;;;;5082055;28;20462;-70
2023/08/21 13:35:30;;;;;;;5.70;3.90;;;33.40;24.30;;;;;;5076726;28;20467;-72
2023/08/21 13:38:17;;;;;;;14.73;4.47;;;33.50;24.40;;;;;;5081401;28;21096;-71
2023/08/21 13:41:03;;;;;;;5.53;3.13;;;33.70;23.00;;;;;;5081548;28;20591;-71
2023/08/21 13:43:48;;;;;;;7.67;3.70;;;33.80;20.50;;;;;;5078296;28;20521;-71
2023/08/21 13:46:34;;;;;;;6.03;3.40;;;33.80;21.00;;;;;;5082769;28;20437;-72
2023/08/21 13:49:20;;;;;;;4.47;3.17;;;33.70;21.50;;;;;;5080599;28;20449;-72
2023/08/21 13:52:06;;;;;;;5.50;3.13;;;33.90;24.60;;;;;;5081353;28;20994;-71
2023/08/21 13:54:52;;;;;;;4.60;3.37;;;33.90;23.40;;;;;;5080442;28;20440;-71
2023/08/21 13:57:38;;;;;;;5.83;2.83;;;33.60;19.20;;;;;;5072767;28;21085;-71
2023/08/21 14:00:23;;;;;;;4.03;3.20;;;33.20;19.90;;;;;;5077571;28;20560;-72
2023/08/21 14:03:09;;;;;;;4.57;2.73;;;33.10;24.10;;;;;;5078821;28;20468;-71
2023/08/21 14:05:55;;;;;;;5.13;2.87;;;33.20;23.10;;;;;;5080854;28;20442;-71
2023/08/21 14:08:40;;;;;;;4.30;3.00;;;33.40;21.10;;;;;;5078163;28;20534;-72
2023/08/21 14:11:27;;;;;;;4.67;3.17;;;33.50;23.10;;;;;;5079317;28;21018;-72
2023/08/21 14:14:13;;;;;;;6.03;3.30;;;33.80;22.50;;;;;;5076199;28;20586;-72
2023/08/21 14:16:58;;;;;;;7.00;2.90;;;34.00;20.00;;;;;;5073202;28;20657;-72
2023/08/21 14:19:44;;;;;;;4.80;3.00;;;34.20;19.20;;;;;;5071358;28;20518;-71
2023/08/21 14:22:29;;;;;;;4.83;3.07;;;34.30;17.70;;;;;;5079263;28;20462;-71